Time;durP1;ratioP1;P1;durP2;ratioP2;P2;SDS_P1;SDS_P2;PMS_P1;PMS_P2;Temp;Humidity;BMP_temperature;BMP_pressure;BME280_temperature;BME280_humidity;BME280_pressure;Samples;Min_cycle;Max_cycle;Signal;HPM_P1;HPM_P2
2021/10/23 00:01:22;;;;;;;1.33;1.23;;;17.80;94.90;;;21.68;46.41;95362.94;6064036;19;20015;-72
2021/10/23 00:03:22;;;;;;;1.50;1.40;;;17.80;94.90;;;21.67;46.16;95358.63;6058362;19;20003;-72
2021/10/23 00:05:23;;;;;;;1.40;1.30;;;17.70;94.80;;;21.68;46.29;95364.84;6068376;19;20688;-72
2021/10/23 00:07:24;;;;;;;1.38;1.27;;;17.80;94.90;;;21.67;46.02;95363.25;6051971;19;20032;-72
2021/10/23 00:09:25;;;;;;;1.30;1.20;;;17.80;94.90;;;21.67;46.29;95361.34;6052353;19;20019;-72
2021/10/23 00:11:26;;;;;;;1.63;1.42;;;17.80;94.90;;;21.68;46.00;95356.72;6056216;19;20018;-72
2021/10/23 00:13:27;;;;;;;2.10;1.15;;;17.80;94.90;;;21.65;46.56;95350.00;6066388;19;20526;-71
2021/10/23 00:15:28;;;;;;;1.50;1.40;;;17.80;94.90;;;21.65;46.12;95350.00;6075124;19;20006;-71
2021/10/23 00:17:28;;;;;;;1.45;1.35;;;17.80;95.00;;;21.66;46.23;95354.31;6051292;19;20011;-71
2021/10/23 00:19:29;;;;;;;1.17;1.08;;;17.80;95.30;;;21.67;46.14;95355.13;6048994;19;20010;-72
2021/10/23 00:21:30;;;;;;;1.65;1.15;;;17.80;95.00;;;21.66;46.34;95356.22;6055606;19;20059;-71
2021/10/23 00:23:31;;;;;;;1.40;1.30;;;17.80;95.00;;;21.67;46.37;95363.25;6062007;19;20570;-71
2021/10/23 00:25:32;;;;;;;1.48;1.38;;;17.80;95.10;;;21.66;46.12;95356.22;6052075;19;20035;-71
2021/10/23 00:27:33;;;;;;;1.13;1.10;;;17.70;95.00;;;21.65;46.48;95354.63;6072803;19;20006;-72
2021/10/23 00:29:34;;;;;;;1.35;1.25;;;17.70;95.10;;;21.65;46.42;95360.84;6072930;19;20070;-71
2021/10/23 00:31:35;;;;;;;1.55;1.20;;;17.80;95.10;;;21.65;46.38;95350.00;6076808;19;20002;-71
2021/10/23 00:33:36;;;;;;;1.30;1.20;;;17.70;95.40;;;21.65;46.67;95362.78;6080032;19;20015;-71
2021/10/23 00:35:36;;;;;;;1.08;0.98;;;17.80;95.20;;;21.64;46.14;95358.47;6075429;19;20037;-72
2021/10/23 00:37:37;;;;;;;1.45;1.35;;;17.70;95.10;;;21.65;46.56;95360.06;6056219;19;20133;-71
2021/10/23 00:39:39;;;;;;;1.33;1.23;;;17.80;95.20;;;21.65;46.40;95360.06;6062565;19;20006;-71
2021/10/23 00:41:41;;;;;;;1.17;1.08;;;17.80;95.20;;;21.63;46.48;95360.38;6060642;19;20129;-72
2021/10/23 00:43:45;;;;;;;1.20;1.10;;;17.70;95.10;;;21.64;46.35;95363.88;6061132;19;20092;-71
2021/10/23 00:45:47;;;;;;;1.27;1.20;;;17.70;95.10;;;21.63;46.48;95359.56;6061326;19;20115;-72
2021/10/23 00:47:47;;;;;;;1.13;1.05;;;17.70;95.10;;;21.63;46.42;95360.38;6069685;19;20467;-74
2021/10/23 00:49:52;;;;;;;1.25;1.15;;;17.70;95.10;;;21.63;46.47;95351.44;6056563;19;20098;-71
2021/10/23 00:51:52;;;;;;;1.20;1.10;;;17.70;95.10;;;21.64;46.16;95363.88;6060449;19;20494;-71
2021/10/23 00:53:53;;;;;;;1.00;0.80;;;17.80;95.20;;;21.62;46.42;95369.63;6076745;19;20096;-72
2021/10/23 00:55:54;;;;;;;1.45;1.15;;;17.70;95.20;;;21.62;46.11;95364.19;6062092;19;20040;-72
2021/10/23 00:57:55;;;;;;;1.33;1.13;;;17.70;95.10;;;21.63;46.22;95367.72;6060281;19;20053;-72
2021/10/23 00:59:56;;;;;;;1.10;1.00;;;17.70;95.20;;;21.62;46.70;95371.53;6066055;19;20110;-72
2021/10/23 01:01:57;;;;;;;1.42;1.23;;;17.70;95.20;;;21.62;46.15;95368.81;6055435;19;20482;-71
2021/10/23 01:03:58;;;;;;;2.20;1.25;;;17.70;95.20;;;21.62;46.42;95366.91;6051814;19;20046;-72
2021/10/23 01:05:59;;;;;;;1.08;1.00;;;17.70;95.20;;;21.63;46.58;95373.13;6064306;19;20024;-71
2021/10/23 01:08:01;;;;;;;1.20;1.10;;;17.70;95.20;;;21.61;46.53;95369.91;6065166;19;20011;-72
2021/10/23 01:10:07;;;;;;;1.10;1.00;;;17.70;95.20;;;21.61;46.26;95369.91;6045566;19;20532;-71
2021/10/23 01:12:12;;;;;;;0.90;0.90;;;17.70;95.20;;;21.62;46.18;95371.53;6059248;19;20007;-71
2021/10/23 01:14:24;;;;;;;1.15;1.10;;;17.70;95.20;;;21.62;46.38;95377.75;6051355;19;20046;-72
2021/10/23 01:16:26;;;;;;;1.33;1.23;;;17.70;95.20;;;21.61;46.38;95370.72;6065014;19;20006;-74
2021/10/23 01:18:27;;;;;;;3.67;0.82;;;17.70;95.20;;;21.61;46.42;95372.63;6068122;19;20010;-76
2021/10/23 01:20:30;;;;;;;0.93;0.90;;;17.70;95.20;;;21.59;46.73;95373.72;6061764;19;20094;-76
2021/10/23 01:22:31;;;;;;;0.88;0.88;;;17.70;95.20;;;21.60;46.25;95371.81;6076798;19;20363;-74
2021/10/23 01:24:32;;;;;;;0.90;0.90;;;17.70;95.30;;;21.61;46.34;95369.91;6077362;19;20038;-74
2021/10/23 01:26:34;;;;;;;1.63;0.90;;;17.70;95.30;;;21.59;46.71;95376.44;6073491;19;20018;-75
2021/10/23 01:28:34;;;;;;;0.75;0.75;;;17.70;95.30;;;21.59;46.24;95373.72;6085516;19;20029;-74
2021/10/23 01:30:35;;;;;;;1.00;0.90;;;17.70;95.30;;;21.58;46.53;95369.41;6085137;19;20008;-74
2021/10/23 01:32:37;;;;;;;2.65;1.25;;;17.70;95.30;;;21.58;46.53;95374.84;6082614;19;20379;-75
2021/10/23 01:34:38;;;;;;;0.80;0.80;;;17.70;95.30;;;21.58;46.25;95376.75;6085122;19;20010;-76
2021/10/23 01:36:48;;;;;;;1.67;1.10;;;17.70;95.30;;;21.58;46.38;95372.13;6085112;19;20037;-74
2021/10/23 01:38:50;;;;;;;0.82;0.82;;;17.70;95.30;;;21.57;46.54;95378.69;6089140;19;20101;-75
2021/10/23 01:40:51;;;;;;;0.98;0.93;;;17.70;95.40;;;21.57;46.46;95378.69;6088508;19;20012;-74
2021/10/23 01:42:58;;;;;;;1.00;1.00;;;17.70;95.40;;;21.57;46.52;95375.97;6087970;19;20499;-74
2021/10/23 01:44:59;;;;;;;0.93;0.90;;;17.70;95.50;;;21.57;46.34;95375.97;6077227;19;21315;-74
2021/10/23 01:47:02;;;;;;;0.77;0.77;;;17.70;95.40;;;21.56;46.32;95377.06;6089673;19;20022;-74
2021/10/23 01:49:05;;;;;;;1.17;1.10;;;17.70;95.50;;;21.57;46.67;95378.69;6092284;19;20002;-74
2021/10/23 01:51:06;;;;;;;1.27;0.90;;;17.70;95.50;;;21.56;46.84;95374.34;6082489;19;20317;-73
2021/10/23 01:53:06;;;;;;;1.10;1.00;;;17.70;95.50;;;21.57;46.24;95381.38;6065512;19;20015;-74
2021/10/23 01:55:13;;;;;;;0.73;0.73;;;17.70;95.50;;;21.56;46.46;95379.78;6064119;19;20644;-73
2021/10/23 01:57:14;;;;;;;1.80;0.75;;;17.70;95.60;;;21.56;46.43;95376.28;6084613;19;20010;-74
2021/10/23 01:59:15;;;;;;;0.77;0.77;;;17.70;95.50;;;21.56;46.68;95387.94;6084114;19;20011;-74
2021/10/23 02:01:15;;;;;;;1.42;1.00;;;17.60;95.50;;;21.55;46.50;95380.91;6068541;19;20046;-75
2021/10/23 02:03:16;;;;;;;0.95;0.90;;;17.60;95.50;;;21.56;46.73;95379.00;6066632;19;20475;-75
2021/10/23 02:05:17;;;;;;;0.80;0.80;;;17.60;95.50;;;21.55;46.32;95378.19;6071119;19;20010;-75
2021/10/23 02:07:18;;;;;;;0.80;0.80;;;17.60;95.50;;;21.55;46.36;95386.31;6072728;19;20022;-74
2021/10/23 02:09:19;;;;;;;1.08;0.98;;;17.70;95.60;;;21.55;46.46;95378.19;6089321;19;20006;-75
2021/10/23 02:11:21;;;;;;;1.13;0.73;;;17.60;95.60;;;21.55;46.81;95378.19;6077077;19;20335;-75
2021/10/23 02:13:21;;;;;;;0.80;0.77;;;17.60;95.60;;;;;;6080696;19;20015;-75
2021/10/23 02:15:22;;;;;;;1.08;0.90;;;17.60;95.60;;;;;;6064719;19;20546;-75
2021/10/23 02:17:23;;;;;;;1.17;0.90;;;17.60;95.60;;;21.54;46.54;95382.00;6087503;19;20006;-73
2021/10/23 02:19:24;;;;;;;0.73;0.70;;;17.70;95.70;;;21.53;46.59;95376.91;6088963;19;20018;-76
2021/10/23 02:21:24;;;;;;;1.20;0.90;;;17.60;95.60;;;21.54;46.55;95381.22;6076690;19;20529;-74
2021/10/23 02:23:25;;;;;;;1.17;1.00;;;17.70;95.70;;;21.54;46.90;95387.44;6080469;19;20057;-74
2021/10/23 02:25:27;;;;;;;1.00;0.90;;;17.60;95.70;;;21.54;46.89;95390.16;6081596;19;20039;-75
2021/10/23 02:27:27;;;;;;;0.80;0.80;;;17.60;95.70;;;21.52;46.89;95384.25;6092862;19;20078;-74
2021/10/23 02:29:28;;;;;;;1.05;1.00;;;17.60;95.70;;;21.52;46.92;95384.25;6094099;19;21016;-74
2021/10/23 02:31:29;;;;;;;1.45;0.70;;;17.60;95.70;;;21.51;46.77;95388.06;6083047;19;20011;-73
2021/10/23 02:33:30;;;;;;;1.25;0.68;;;17.70;95.70;;;21.52;46.72;95395.09;6085355;19;20666;-74
2021/10/23 02:35:31;;;;;;;0.60;0.60;;;17.60;95.70;;;21.52;46.73;95388.88;6079477;19;20021;-75
2021/10/23 02:37:32;;;;;;;0.90;0.90;;;17.60;95.70;;;21.52;46.69;95388.88;6063358;19;20012;-75
2021/10/23 02:39:33;;;;;;;0.65;0.65;;;17.60;95.70;;;21.51;46.72;95385.34;6075477;19;20017;-74
2021/10/23 02:41:34;;;;;;;0.73;0.73;;;17.60;95.60;;;21.51;46.67;95387.25;6076176;19;20034;-74
2021/10/23 02:43:34;;;;;;;1.08;0.82;;;17.60;95.70;;;21.51;46.83;95388.06;6074515;19;20097;-74
2021/10/23 02:45:38;;;;;;;0.68;0.68;;;17.60;95.60;;;21.50;46.36;95389.19;6065752;19;20372;-73
2021/10/23 02:47:39;;;;;;;2.05;0.80;;;17.60;95.60;;;21.51;46.89;95396.19;6071626;19;20025;-74
2021/10/23 02:49:39;;;;;;;1.00;0.90;;;17.60;95.60;;;21.50;46.83;95391.09;6080836;19;20620;-74
2021/10/23 02:51:40;;;;;;;0.70;0.70;;;17.60;95.90;;;21.49;46.60;95395.72;6052672;19;20487;-75
2021/10/23 02:53:42;;;;;;;0.70;0.70;;;17.60;95.60;;;21.50;46.39;95402.75;6057828;19;20010;-75
2021/10/23 02:55:43;;;;;;;0.80;0.80;;;17.60;95.60;;;21.50;46.60;95400.03;6063583;19;20033;-74
2021/10/23 02:57:44;;;;;;;1.23;0.80;;;17.60;95.60;;;21.50;46.69;95405.47;6072086;19;20427;-76
2021/10/23 02:59:47;;;;;;;;;;;17.60;95.60;;;21.49;46.74;95405.78;6076567;19;20456;-75
2021/10/23 03:01:48;;;;;;;0.75;0.75;;;17.60;95.60;;;21.49;46.62;95408.47;6060251;19;20719;-75
2021/10/23 03:03:50;;;;;;;0.88;0.63;;;17.60;95.60;;;21.49;46.52;95414.72;6076996;19;20014;-74
2021/10/23 03:05:51;;;;;;;0.93;0.90;;;17.60;95.60;;;21.49;46.53;95419.34;6079924;19;20017;-74
2021/10/23 03:07:52;;;;;;;1.63;0.85;;;17.60;95.60;;;21.49;46.71;95413.91;6090359;19;20578;-74
2021/10/23 03:09:53;;;;;;;0.93;0.80;;;17.60;95.60;;;21.47;46.36;95419.66;6090273;19;20010;-75
2021/10/23 03:11:54;;;;;;;0.75;0.73;;;17.60;95.60;;;21.47;46.30;95425.06;6071987;19;20011;-73
2021/10/23 03:13:56;;;;;;;0.70;0.60;;;17.60;95.60;;;21.47;46.68;95419.66;6074264;19;20040;-73
2021/10/23 03:15:57;;;;;;;1.15;0.98;;;17.60;95.60;;;21.47;46.52;95424.28;6075721;19;20014;-73
2021/10/23 03:17:58;;;;;;;1.05;0.88;;;17.60;95.50;;;21.46;46.31;95426.19;6075926;19;20013;-73
2021/10/23 03:19:59;;;;;;;0.70;0.70;;;17.60;95.50;;;21.46;46.59;95428.91;6070426;19;20416;-73
2021/10/23 03:22:00;;;;;;;0.57;0.57;;;17.60;95.50;;;21.46;46.63;95428.91;6081188;19;20069;-72
2021/10/23 03:24:01;;;;;;;0.55;0.55;;;17.50;95.50;;;21.45;46.48;95424.56;6071403;19;20015;-73
2021/10/23 03:26:02;;;;;;;2.83;0.90;;;17.50;95.50;;;21.45;46.68;95426.50;6074814;19;20101;-73
2021/10/23 03:28:03;;;;;;;0.60;0.60;;;17.60;95.50;;;21.45;46.54;95435.44;6079088;19;20029;-73
2021/10/23 03:30:06;;;;;;;0.55;0.50;;;17.50;95.40;;;21.45;46.31;95440.06;6080451;19;20979;-74
2021/10/23 03:32:07;;;;;;;0.70;0.70;;;17.50;95.50;;;21.45;46.47;95437.34;6069489;19;20387;-73
2021/10/23 03:34:07;;;;;;;0.95;0.80;;;17.50;95.40;;;21.44;46.72;95439.25;6071942;19;20003;-75
2021/10/23 03:36:09;;;;;;;0.93;0.77;;;17.50;95.80;;;21.44;46.27;95447.38;6071381;19;20014;-76
2021/10/23 03:38:10;;;;;;;0.60;0.60;;;17.60;95.50;;;21.44;46.74;95447.38;6071815;19;21848;-74
2021/10/23 03:40:11;;;;;;;1.45;0.95;;;17.50;95.40;;;21.44;46.63;95441.16;6078238;19;20010;-74
2021/10/23 03:42:12;;;;;;;0.90;0.90;;;17.50;95.40;;;21.43;46.35;95445.78;6066107;19;20034;-74
2021/10/23 03:44:13;;;;;;;0.95;0.68;;;17.50;95.40;;;21.43;46.36;95451.22;6064830;19;20025;-74
2021/10/23 03:46:15;;;;;;;1.00;0.80;;;17.60;95.40;;;21.43;46.37;95453.94;6044531;19;20035;-72
2021/10/23 03:48:16;;;;;;;0.65;0.63;;;17.50;95.30;;;21.44;46.45;95452.00;6068424;19;20011;-72
2021/10/23 03:50:17;;;;;;;0.90;0.70;;;17.50;95.30;;;21.43;46.31;95453.94;6062363;19;20097;-73
2021/10/23 03:52:18;;;;;;;0.68;0.68;;;17.60;95.40;;;21.42;46.48;95449.63;6064581;19;20022;-73
2021/10/23 03:54:18;;;;;;;0.60;0.60;;;17.50;95.30;;;21.41;46.41;95453.44;6052590;19;20574;-73
2021/10/23 03:56:19;;;;;;;1.00;0.75;;;17.50;95.30;;;21.43;46.22;95458.56;6039975;19;22227;-71
2021/10/23 03:58:20;;;;;;;0.68;0.65;;;17.50;95.30;;;21.42;46.39;95454.25;6065571;19;21975;-71
2021/10/23 04:00:21;;;;;;;0.70;0.60;;;17.50;95.30;;;21.41;46.45;95453.44;6049736;19;20676;-68
2021/10/23 04:02:22;;;;;;;0.80;0.70;;;17.50;95.60;;;21.40;46.33;95451.84;6091429;19;20034;-68
2021/10/23 04:04:23;;;;;;;0.70;0.70;;;17.50;95.30;;;21.39;46.48;95461.09;6064529;19;20034;-73
2021/10/23 04:06:25;;;;;;;0.77;0.70;;;17.50;95.40;;;21.40;46.63;95462.69;6049868;19;20988;-73
2021/10/23 04:08:26;;;;;;;0.60;0.60;;;17.50;95.60;;;21.41;46.85;95455.34;6056511;19;20010;-73
2021/10/23 04:10:27;;;;;;;0.70;0.70;;;17.50;95.70;;;21.41;46.49;95458.88;6078047;19;20005;-73
2021/10/23 04:12:29;;;;;;;0.98;0.70;;;17.50;95.70;;;21.40;46.84;95459.97;6063940;19;20081;-73
2021/10/23 04:14:30;;;;;;;2.25;0.70;;;17.50;95.70;;;21.40;46.50;95462.69;6037956;19;20010;-73
2021/10/23 04:16:31;;;;;;;0.88;0.60;;;17.50;95.70;;;21.41;46.55;95464.28;6036808;19;20034;-73
2021/10/23 04:18:32;;;;;;;0.95;0.57;;;17.50;95.70;;;21.40;46.59;95462.69;6062864;19;20019;-73
2021/10/23 04:20:33;;;;;;;0.88;0.80;;;17.50;95.60;;;21.40;46.32;95462.69;6068945;19;20086;-73
2021/10/23 04:22:34;;;;;;;1.38;0.73;;;17.50;95.60;;;21.40;46.64;95465.41;6041807;19;20409;-73
2021/10/23 04:24:35;;;;;;;0.70;0.70;;;17.50;95.60;;;21.40;46.36;95468.09;6098012;19;20589;-71
2021/10/23 04:26:38;;;;;;;0.82;0.63;;;17.50;95.60;;;21.38;46.44;95464.91;6105904;19;20009;-71
2021/10/23 04:28:39;;;;;;;0.55;0.55;;;17.50;95.60;;;21.37;46.33;95462.50;6104533;19;20018;-72
2021/10/23 04:30:40;;;;;;;0.60;0.60;;;17.50;95.60;;;21.37;46.67;95465.22;6105631;19;20489;-72
2021/10/23 04:32:40;;;;;;;0.60;0.60;;;17.50;95.50;;;21.36;46.46;95466.34;6099240;19;20023;-72
2021/10/23 04:34:42;;;;;;;1.08;0.70;;;17.50;95.50;;;21.36;46.50;95467.13;6096736;19;20014;-71
2021/10/23 04:36:43;;;;;;;0.60;0.60;;;17.50;95.50;;;21.35;46.46;95465.53;6100758;19;20042;-71
2021/10/23 04:38:44;;;;;;;0.63;0.63;;;17.50;95.50;;;21.34;46.65;95472.06;6104110;19;20006;-72
2021/10/23 04:40:45;;;;;;;0.73;0.70;;;17.50;95.50;;;21.35;46.36;95464.72;6097270;19;20031;-72
2021/10/23 04:42:46;;;;;;;2.42;0.60;;;17.50;95.50;;;21.35;46.78;95460.09;6089228;19;20327;-72
2021/10/23 04:44:47;;;;;;;0.60;0.60;;;17.50;95.50;;;21.34;46.62;95465.84;6102763;19;20039;-72
2021/10/23 04:46:48;;;;;;;0.60;0.60;;;17.50;95.50;;;21.33;46.47;95473.16;6109118;19;20355;-72
2021/10/23 04:48:49;;;;;;;0.65;0.65;;;17.50;95.50;;;21.33;46.32;95470.47;6107848;19;20018;-72
2021/10/23 04:50:50;;;;;;;0.73;0.60;;;17.40;95.40;;;21.33;46.53;95467.75;6108656;19;20017;-71
2021/10/23 04:52:50;;;;;;;0.60;0.60;;;17.50;95.50;;;21.33;46.27;95475.88;6107900;19;20040;-71
2021/10/23 04:54:51;;;;;;;0.90;0.73;;;17.50;95.50;;;21.33;46.75;95472.38;6110841;19;20015;-72
2021/10/23 04:56:52;;;;;;;0.60;0.60;;;17.40;95.30;;;21.32;46.68;95473.47;6099549;19;20100;-73
2021/10/23 04:58:53;;;;;;;0.65;0.55;;;17.40;95.30;;;21.32;46.33;95476.19;6077445;19;20015;-75
2021/10/23 05:00:56;;;;;;;0.60;0.60;;;17.40;95.30;;;21.31;46.48;95472.69;6056162;19;20557;-74
2021/10/23 05:02:57;;;;;;;1.90;0.63;;;17.40;95.30;;;21.32;46.64;95468.84;6105121;19;20022;-71
2021/10/23 05:04:58;;;;;;;3.05;0.57;;;17.40;95.30;;;21.32;46.68;95470.78;6089322;19;20006;-74
2021/10/23 05:06:58;;;;;;;0.80;0.70;;;17.40;95.20;;;21.31;46.71;95467.25;6059882;19;20017;-76
2021/10/23 05:08:59;;;;;;;0.63;0.63;;;17.40;95.20;;;21.31;46.15;95469.97;6086529;19;20002;-76
2021/10/23 05:11:00;;;;;;;0.60;0.60;;;17.40;95.30;;;21.31;46.14;95469.16;6074107;19;20033;-76
2021/10/23 05:13:04;;;;;;;0.70;0.70;;;17.40;95.20;;;21.30;46.06;95462.94;6079977;19;20026;-76
2021/10/23 05:15:06;;;;;;;0.57;0.57;;;17.40;95.20;;;21.31;46.74;95469.16;6079583;19;20014;-76
2021/10/23 05:17:08;;;;;;;5.32;0.52;;;17.40;95.20;;;21.30;46.25;95473.00;6090173;19;20041;-77
2021/10/23 05:19:09;;;;;;;0.60;0.60;;;17.40;95.20;;;21.30;46.35;95473.78;6093644;19;20014;-77
2021/10/23 05:21:10;;;;;;;0.65;0.65;;;17.40;95.20;;;21.29;46.66;95471.38;6086913;19;20021;-76
2021/10/23 05:23:11;;;;;;;1.05;0.80;;;17.40;95.20;;;21.30;46.47;95473.00;6067957;19;20014;-77
2021/10/23 05:25:12;;;;;;;0.70;0.60;;;17.40;95.20;;;21.29;46.53;95483.03;6084800;19;20011;-77
2021/10/23 05:27:13;;;;;;;1.08;0.80;;;17.40;95.20;;;21.29;46.26;95488.47;6088264;19;20006;-77
2021/10/23 05:29:14;;;;;;;0.60;0.60;;;17.40;95.20;;;21.29;46.67;95484.94;6099465;19;20018;-72
2021/10/23 05:31:15;;;;;;;0.63;0.60;;;17.40;95.20;;;21.28;46.19;95489.56;6106593;19;20054;-72
2021/10/23 05:33:16;;;;;;;0.70;0.60;;;17.40;95.20;;;21.29;46.66;95493.09;6104448;19;20371;-72
2021/10/23 05:35:17;;;;;;;0.85;0.60;;;17.40;95.20;;;21.27;46.20;95487.97;6106000;19;20377;-72
2021/10/23 05:37:18;;;;;;;0.63;0.60;;;17.40;95.20;;;21.28;46.58;95492.28;6107135;19;20006;-72
2021/10/23 05:39:19;;;;;;;0.73;0.70;;;17.40;95.20;;;21.27;46.56;95493.41;6107413;19;20010;-72
2021/10/23 05:41:20;;;;;;;1.20;0.70;;;17.40;95.20;;;21.28;46.90;95505.84;6106976;19;20033;-72
2021/10/23 05:43:21;;;;;;;0.60;0.60;;;17.40;95.20;;;21.27;46.41;95501.53;6100035;19;20107;-72
2021/10/23 05:45:22;;;;;;;0.60;0.60;;;17.40;95.20;;;21.25;46.45;95493.69;6107171;19;20017;-72
2021/10/23 05:47:23;;;;;;;0.68;0.68;;;17.40;95.20;;;21.25;46.25;95499.13;6103451;19;20019;-72
2021/10/23 05:49:24;;;;;;;0.63;0.63;;;17.40;95.20;;;21.26;46.46;95502.63;6106322;19;20054;-73
2021/10/23 05:51:25;;;;;;;0.70;0.70;;;17.40;95.20;;;21.25;46.39;95509.97;6103594;19;20102;-72
2021/10/23 05:53:26;;;;;;;1.23;0.60;;;17.40;95.20;;;21.25;46.55;95507.25;6101074;19;20493;-71
2021/10/23 05:55:27;;;;;;;0.70;0.70;;;17.40;95.20;;;21.25;46.47;95509.16;6106862;19;20034;-72
2021/10/23 05:57:28;;;;;;;0.75;0.52;;;17.40;95.20;;;21.26;46.36;95499.94;6097502;19;20018;-74
2021/10/23 05:59:29;;;;;;;0.50;0.50;;;17.40;95.20;;;21.25;46.56;95509.97;6049045;19;20010;-74
2021/10/23 06:01:29;;;;;;;1.13;0.77;;;17.30;95.20;;;21.25;46.26;95517.31;6044796;19;20011;-74
2021/10/23 06:03:33;;;;;;;2.67;0.70;;;17.40;95.20;;;21.25;46.67;95517.31;6058223;19;20025;-73
2021/10/23 06:05:34;;;;;;;0.80;0.80;;;17.40;95.20;;;21.26;46.64;95524.34;6056138;19;20105;-74
2021/10/23 06:07:39;;;;;;;0.75;0.73;;;17.40;95.20;;;21.26;46.60;95521.63;6065330;19;20040;-74
2021/10/23 06:09:39;;;;;;;0.50;0.50;;;17.30;95.10;;;21.25;46.43;95526.25;6074807;19;20028;-74
2021/10/23 06:11:40;;;;;;;0.65;0.60;;;17.30;95.10;;;21.24;46.67;95526.56;6048800;19;20130;-74
2021/10/23 06:13:41;;;;;;;0.68;0.60;;;17.30;95.10;;;21.25;46.36;95533.56;6058506;19;20082;-74
2021/10/23 06:15:42;;;;;;;2.38;0.60;;;17.30;95.10;;;21.24;46.66;95530.06;6044614;19;20015;-74
2021/10/23 06:17:43;;;;;;;1.05;0.70;;;17.30;95.10;;;21.25;46.48;95531.66;6055979;19;20022;-73
2021/10/23 06:19:43;;;;;;;0.60;0.60;;;17.30;95.10;;;21.25;46.37;95530.88;6041328;19;20090;-73
2021/10/23 06:21:44;;;;;;;0.80;0.80;;;17.30;95.10;;;21.24;46.61;95534.69;6046281;19;20347;-74
2021/10/23 06:23:45;;;;;;;0.60;0.60;;;17.30;95.10;;;21.23;46.27;95533.09;6046019;19;20069;-73
2021/10/23 06:25:46;;;;;;;0.95;0.50;;;17.30;95.20;;;21.24;46.66;95531.97;6054913;19;20011;-73
2021/10/23 06:27:48;;;;;;;1.25;0.68;;;17.30;95.10;;;21.24;46.58;95540.91;6058642;19;20027;-73
2021/10/23 06:29:49;;;;;;;0.73;0.73;;;17.30;95.10;;;21.24;46.14;95534.69;6051728;19;20019;-73
2021/10/23 06:31:49;;;;;;;0.68;0.60;;;17.30;95.10;;;21.23;46.10;95544.72;6055651;19;21648;-74
2021/10/23 06:33:50;;;;;;;1.02;0.85;;;17.30;95.10;;;21.23;46.51;95538.50;6059029;19;20047;-74
2021/10/23 06:35:51;;;;;;;0.80;0.68;;;17.30;95.10;;;21.23;46.36;95541.22;6058782;19;20006;-74
2021/10/23 06:37:52;;;;;;;0.68;0.68;;;17.30;95.00;;;21.23;46.29;95539.31;6012236;19;20202;-73
2021/10/23 06:39:53;;;;;;;0.82;0.60;;;17.30;95.00;;;21.22;46.54;95531.44;6039243;19;21294;-74
2021/10/23 06:41:54;;;;;;;1.15;0.75;;;17.30;95.00;;;21.22;46.14;95536.88;6047758;19;20038;-74
2021/10/23 06:43:55;;;;;;;0.60;0.57;;;17.30;95.00;;;21.22;46.21;95534.16;6046569;19;20010;-74
2021/10/23 06:45:55;;;;;;;0.70;0.70;;;17.30;94.90;;;21.22;46.56;95545.00;6034529;19;20580;-73
2021/10/23 06:47:57;;;;;;;1.23;0.70;;;17.30;94.90;;;21.22;46.42;95545.00;6030520;19;20896;-73
2021/10/23 06:49:58;;;;;;;0.57;0.57;;;17.30;94.90;;;21.22;46.10;95550.44;6035148;19;20081;-73
2021/10/23 06:51:59;;;;;;;1.00;0.60;;;17.30;94.90;;;21.21;45.93;95546.91;6054545;19;20026;-71
2021/10/23 06:54:00;;;;;;;0.70;0.70;;;17.30;94.80;;;21.22;46.36;95558.56;6040073;19;20490;-70
2021/10/23 06:56:01;;;;;;;0.80;0.70;;;17.30;94.80;;;21.20;45.96;95552.63;6055387;19;20098;-73
2021/10/23 06:58:02;;;;;;;0.70;0.70;;;17.30;95.10;;;21.20;46.05;95555.34;6048808;19;20040;-74
2021/10/23 07:00:06;;;;;;;1.10;0.80;;;17.30;94.70;;;21.20;45.98;95556.13;6041078;19;20145;-75
2021/10/23 07:02:06;;;;;;;1.00;0.90;;;17.30;94.70;;;21.21;46.16;95559.66;6038579;19;20017;-74
2021/10/23 07:04:07;;;;;;;0.82;0.70;;;17.30;94.70;;;21.20;46.40;95560.75;6055030;19;20107;-74
2021/10/23 07:06:08;;;;;;;0.70;0.70;;;17.30;94.70;;;21.19;46.27;95565.38;6054944;19;20027;-74
2021/10/23 07:08:09;;;;;;;0.80;0.80;;;17.30;94.60;;;21.19;45.99;95559.94;6066398;19;20336;-74
2021/10/23 07:10:11;;;;;;;1.27;0.70;;;17.30;94.60;;;21.18;46.09;95563.78;6083747;19;20013;-73
2021/10/23 07:12:12;;;;;;;0.65;0.65;;;17.30;94.60;;;21.18;46.08;95569.19;6076657;19;20015;-73
2021/10/23 07:14:14;;;;;;;0.85;0.82;;;17.30;94.60;;;21.17;46.05;95564.88;6081457;19;20588;-73
2021/10/23 07:16:15;;;;;;;1.02;0.90;;;17.30;94.50;;;21.18;46.15;95571.91;6068846;19;20027;-74
2021/10/23 07:18:16;;;;;;;1.00;0.60;;;17.30;94.50;;;21.19;46.27;95575.41;6065052;19;20010;-72
2021/10/23 07:20:17;;;;;;;0.57;0.57;;;17.30;94.50;;;21.18;45.95;95574.63;6066592;19;20026;-73
2021/10/23 07:22:18;;;;;;;0.70;0.68;;;17.30;94.50;;;21.19;46.30;95586.25;6071507;19;20014;-73
2021/10/23 07:24:20;;;;;;;0.55;0.52;;;17.30;94.50;;;21.18;46.19;95577.31;6077297;19;20434;-73
2021/10/23 07:26:21;;;;;;;0.70;0.70;;;17.30;94.50;;;21.18;46.27;95588.16;6073320;19;20044;-73
2021/10/23 07:28:22;;;;;;;0.95;0.73;;;17.30;94.50;;;21.17;46.07;95588.47;6066790;19;20961;-73
2021/10/23 07:30:23;;;;;;;1.55;0.70;;;17.30;94.50;;;21.18;45.90;95595.50;6069065;19;20030;-72
2021/10/23 07:32:24;;;;;;;1.25;0.80;;;17.30;94.40;;;21.17;45.81;95593.91;6081793;19;20014;-72
2021/10/23 07:34:24;;;;;;;1.85;0.90;;;17.30;94.40;;;21.17;46.28;95599.31;6087164;19;20010;-73
2021/10/23 07:36:25;;;;;;;0.77;0.70;;;17.30;94.40;;;21.16;46.23;95600.44;6070835;19;20021;-72
2021/10/23 07:38:26;;;;;;;0.77;0.77;;;17.30;94.40;;;21.17;45.73;95599.31;6057863;19;20854;-73
2021/10/23 07:40:27;;;;;;;1.00;0.88;;;17.30;94.40;;;21.16;45.77;95597.72;6068408;19;19999;-73
2021/10/23 07:42:29;;;;;;;1.30;0.70;;;17.30;94.40;;;21.18;45.75;95609.06;6076656;19;20051;-72
2021/10/23 07:44:29;;;;;;;0.85;0.85;;;17.30;94.40;;;21.17;46.06;95610.16;6058210;19;20110;-72
2021/10/23 07:46:30;;;;;;;1.00;0.75;;;17.30;94.40;;;21.17;45.78;95604.75;6078124;19;20459;-72
2021/10/23 07:48:34;;;;;;;0.93;0.88;;;17.30;94.30;;;21.17;45.92;95615.59;6071818;19;21729;-73
2021/10/23 07:50:35;;;;;;;0.95;0.80;;;17.30;94.30;;;21.16;46.02;95612.09;6059622;19;20463;-73
2021/10/23 07:52:39;;;;;;;0.93;0.90;;;17.30;94.30;;;21.15;45.71;95612.38;6069355;19;21130;-73
2021/10/23 07:54:42;;;;;;;1.85;0.80;;;17.30;94.30;;;21.16;46.12;95619.41;6063791;19;20042;-73
2021/10/23 07:56:44;;;;;;;1.70;1.00;;;17.30;94.30;;;21.16;45.75;95624.84;6062265;19;20011;-73
2021/10/23 07:58:44;;;;;;;0.80;0.80;;;17.30;94.30;;;21.16;45.88;95632.97;6076086;19;20018;-73
2021/10/23 08:00:51;;;;;;;3.00;0.90;;;17.30;94.30;;;21.16;45.83;95630.25;6067169;19;20011;-73
2021/10/23 08:03:01;;;;;;;0.82;0.82;;;17.20;94.30;;;21.15;45.74;95623.22;6060056;19;20402;-73
2021/10/23 08:05:02;;;;;;;1.70;1.08;;;17.20;94.20;;;21.16;46.10;95638.38;6080544;19;20086;-73
2021/10/23 08:07:04;;;;;;;0.93;0.80;;;17.30;94.40;;;21.15;46.00;95636.78;6046603;19;20883;-73
2021/10/23 08:09:11;;;;;;;0.95;0.88;;;17.30;94.50;;;21.15;45.82;95636.78;6045235;19;20018;-73
2021/10/23 08:11:12;;;;;;;1.00;0.82;;;17.30;94.70;;;21.16;46.04;95641.09;6058031;19;20026;-73
2021/10/23 08:13:13;;;;;;;1.10;1.00;;;17.30;94.80;;;21.16;46.33;95622.94;6046721;19;20003;-72
2021/10/23 08:15:15;;;;;;;1.00;0.90;;;17.30;95.00;;;21.17;46.21;95632.66;6051447;19;20022;-72
2021/10/23 08:17:16;;;;;;;1.30;0.90;;;17.30;95.20;;;21.17;46.66;95643.50;6052343;19;20027;-72
2021/10/23 08:19:17;;;;;;;1.08;0.80;;;17.30;95.30;;;21.18;46.49;95638.88;6111949;19;20554;-71
2021/10/23 08:21:19;;;;;;;2.13;1.13;;;17.30;95.50;;;21.17;46.33;95638.09;6111040;19;20416;-72
2021/10/23 08:23:22;;;;;;;5.43;0.90;;;17.30;95.60;;;21.17;46.53;95632.66;6094580;19;20094;-71
2021/10/23 08:25:23;;;;;;;2.55;1.05;;;17.30;95.60;;;21.19;46.67;95643.22;6095786;19;20035;-72
2021/10/23 08:27:23;;;;;;;6.30;0.90;;;17.30;95.70;;;21.19;47.00;95632.34;6089988;19;20029;-71
2021/10/23 08:29:24;;;;;;;2.17;1.15;;;17.30;95.80;;;21.19;46.97;95637.78;6093579;19;20047;-71
2021/10/23 08:31:25;;;;;;;1.13;1.02;;;17.30;95.80;;;21.20;46.59;95628.53;6086236;19;20014;-70